createdAt,value
2023-03-22T00:01:13.258Z,32.93
2023-03-22T00:06:19.733Z,36.93
2023-03-22T00:11:26.028Z,32.43
2023-03-22T00:16:31.353Z,37.23
2023-03-22T00:21:36.565Z,31.13
2023-03-22T00:26:41.724Z,36.47
2023-03-22T00:31:46.907Z,33.53
2023-03-22T00:36:52.179Z,32.70
2023-03-22T00:41:57.615Z,30.47
2023-03-22T00:47:02.875Z,28.93
2023-03-22T00:52:08.003Z,29.07
2023-03-22T00:57:14.308Z,29.43
2023-03-22T01:02:19.460Z,32.60
2023-03-22T01:07:24.704Z,33.00
2023-03-22T01:12:30.114Z,32.10
2023-03-22T01:17:35.424Z,37.60
2023-03-22T01:22:40.599Z,30.77
2023-03-22T01:27:46.172Z,41.50
2023-03-22T01:32:51.425Z,29.20
2023-03-22T01:37:56.543Z,33.13
2023-03-22T01:43:01.697Z,38.10
2023-03-22T01:48:15.636Z,38.80
2023-03-22T01:53:22.557Z,27.33
2023-03-22T01:58:27.852Z,30.70
2023-03-22T02:03:48.115Z,28.30
2023-03-22T02:08:55.022Z,27.57
2023-03-22T02:14:05.749Z,34.77
2023-03-22T02:19:30.728Z,37.07
2023-03-22T02:25:04.045Z,33.77
2023-03-22T02:30:39.459Z,37.27
2023-03-22T02:35:50.147Z,29.50
2023-03-22T02:41:23.729Z,31.07
2023-03-22T02:46:37.753Z,28.67
2023-03-22T02:51:48.696Z,23.43
2023-03-22T02:56:59.812Z,35.97
2023-03-22T03:02:06.837Z,34.80
2023-03-22T03:07:14.818Z,28.70
2023-03-22T03:12:22.836Z,30.77
2023-03-22T03:17:51.155Z,30.17
2023-03-22T03:23:08.247Z,38.73
2023-03-22T03:28:32.591Z,34.37
2023-03-22T03:33:40.697Z,33.50
2023-03-22T03:38:49.136Z,41.60
2023-03-22T03:43:56.256Z,37.53
2023-03-22T03:49:03.621Z,33.90
2023-03-22T03:54:08.739Z,38.10
2023-03-22T03:59:15.561Z,43.67
2023-03-22T04:04:24.768Z,34.90
2023-03-22T04:09:33.319Z,34.80
2023-03-22T04:14:38.874Z,40.87
2023-03-22T04:19:45.845Z,34.70
2023-03-22T04:24:51.855Z,34.40
2023-03-22T04:29:58.142Z,39.83
2023-03-22T04:35:03.360Z,40.87
2023-03-22T04:40:09.424Z,28.37
2023-03-22T04:45:15.583Z,32.73
2023-03-22T04:50:21.118Z,37.63
2023-03-22T04:55:27.727Z,32.90
2023-03-22T05:00:32.941Z,39.30
2023-03-22T05:05:40.158Z,35.07
2023-03-22T05:10:45.485Z,38.03
2023-03-22T05:15:51.986Z,41.73
2023-03-22T05:20:57.880Z,40.87
2023-03-22T05:26:04.347Z,34.07
2023-03-22T05:31:11.879Z,41.20
2023-03-22T05:36:17.615Z,42.57
2023-03-22T05:41:22.961Z,37.57
2023-03-22T05:46:28.280Z,40.53
2023-03-22T05:51:34.074Z,38.13
2023-03-22T05:56:39.982Z,32.63
2023-03-22T06:01:45.242Z,40.57
2023-03-22T06:06:50.701Z,36.80
2023-03-22T06:11:55.991Z,47.10
2023-03-22T06:17:01.384Z,38.37
2023-03-22T06:22:06.620Z,42.03
2023-03-22T06:27:12.406Z,39.27
2023-03-22T06:32:17.869Z,35.10
2023-03-22T06:37:23.861Z,42.93
2023-03-22T06:42:31.129Z,40.43
2023-03-22T06:47:36.593Z,43.07
2023-03-22T06:52:41.916Z,40.37
2023-03-22T06:57:47.098Z,46.13
2023-03-22T07:02:52.897Z,42.20
2023-03-22T07:07:58.399Z,43.47
2023-03-22T07:13:03.769Z,44.10
2023-03-22T07:18:10.762Z,38.83
2023-03-22T07:23:16.754Z,50.63
2023-03-22T07:28:22.276Z,43.93
2023-03-22T07:33:27.728Z,42.30
2023-03-22T07:38:33.060Z,43.20
2023-03-22T07:43:52.397Z,39.93
2023-03-22T07:48:45.803Z,39.60
2023-03-22T07:53:51.125Z,47.67
2023-03-22T07:58:57.563Z,35.53
2023-03-22T08:04:03.001Z,37.87
2023-03-22T08:09:10.088Z,39.57
2023-03-22T08:14:30.580Z,35.53
2023-03-22T08:19:26.122Z,35.13
2023-03-22T08:24:31.520Z,25.97
2023-03-22T08:29:40.468Z,28.80
2023-03-22T08:34:46.075Z,22.20
2023-03-22T08:39:51.560Z,30.27
2023-03-22T08:44:58.935Z,22.13
2023-03-22T08:50:03.951Z,31.93
2023-03-22T08:55:10.146Z,30.80
2023-03-22T09:00:20.298Z,25.27
2023-03-22T09:05:28.751Z,24.83
2023-03-22T09:10:34.199Z,26.30
2023-03-22T09:15:39.830Z,26.60
2023-03-22T09:20:47.563Z,24.87
2023-03-22T09:25:52.931Z,23.27
2023-03-22T09:31:11.361Z,25.57
2023-03-22T09:36:17.135Z,26.00
2023-03-22T09:41:34.273Z,29.33
2023-03-22T09:46:42.877Z,30.97
2023-03-22T09:51:51.263Z,23.87
2023-03-22T09:57:00.807Z,30.83
2023-03-22T10:02:25.579Z,25.10
2023-03-22T10:07:34.024Z,20.70
2023-03-22T10:12:42.343Z,19.50
2023-03-22T10:17:53.436Z,25.30
2023-03-22T10:23:02.435Z,18.57
2023-03-22T10:28:23.085Z,25.87
2023-03-22T10:33:34.634Z,20.27
2023-03-22T10:38:43.306Z,22.87
2023-03-22T10:43:51.924Z,18.57
2023-03-22T10:49:00.189Z,16.77
2023-03-22T10:54:06.344Z,21.87
2023-03-22T10:59:31.415Z,20.60
2023-03-22T11:04:38.444Z,15.30
2023-03-22T11:09:44.012Z,25.33
2023-03-22T11:14:51.443Z,14.77
2023-03-22T11:20:02.697Z,17.50
2023-03-22T11:25:17.400Z,26.20
2023-03-22T11:30:28.747Z,16.67
2023-03-22T11:41:31.384Z,14.47
2023-03-22T11:46:37.755Z,18.30
2023-03-22T11:51:44.897Z,17.73
2023-03-22T11:56:50.800Z,13.83
2023-03-22T12:02:24.033Z,16.30
2023-03-22T12:07:32.693Z,20.53
2023-03-22T12:12:41.091Z,18.03
2023-03-22T12:17:52.361Z,16.93
2023-03-22T12:22:59.224Z,11.03
2023-03-22T12:28:10.972Z,17.00
2023-03-22T12:33:31.377Z,16.57
2023-03-22T12:38:57.576Z,14.77
2023-03-22T12:44:30.521Z,12.57
2023-03-22T12:49:40.614Z,14.50
2023-03-22T12:54:55.760Z,13.47
2023-03-22T13:00:08.747Z,11.97
2023-03-22T13:05:14.549Z,12.80
2023-03-22T13:10:36.374Z,12.63
2023-03-22T13:15:59.596Z,13.33
2023-03-22T13:21:26.767Z,18.17
2023-03-22T13:26:47.534Z,11.00
2023-03-22T13:31:58.863Z,12.87
2023-03-22T13:37:05.990Z,14.73
2023-03-22T13:42:23.668Z,11.30
2023-03-22T13:47:39.206Z,13.17
2023-03-22T13:52:47.636Z,12.13
2023-03-22T13:58:01.994Z,15.30
2023-03-22T14:03:13.350Z,11.77
2023-03-22T14:08:24.751Z,16.60
2023-03-22T14:13:35.857Z,12.97
2023-03-22T14:18:55.153Z,9.20
